South Chittenden, Vermont
Current Conditions -  °F | °C
As of 10:55 PM on Saturday 25 Oct 2014 (Local Time) from KRUT Reporting Station
Overcast Overcast  
Wind Chill: 54°   Ceiling: 8500
Heat Index: 54°   Visibility: 10mi
Dew Point: 45°   Wind: 6mph
Humidity: 72%   Direction: 260°W
Pressure: 29.51"   Gusts: NA
Location:  43.6369°N, 72.9375°W
Report Text: KRUT 260255Z 26005KT 10SM FEW043 BKN085 OVC090 12/07 A2951 RMK AO1 57007
Loading
Personal Weather Stations






























Interactive Weather Map
Tropical Storm Tracking
New forecast layout! Learn more

10-Day Weather Forecast

Advertisements
Track Severe Weather on mobile